createdAt,value
2023-05-14T00:00:02.714Z,84.9900
2023-05-14T00:01:03.787Z,83.2919
2023-05-14T00:02:04.922Z,84.5033
2023-05-14T00:03:06.239Z,81.4350
2023-05-14T00:04:07.612Z,81.3047
2023-05-14T00:05:09.681Z,76.5973
2023-05-14T00:06:10.793Z,79.9927
2023-05-14T00:07:11.897Z,82.0174
2023-05-14T00:08:12.893Z,81.8000
2023-05-14T00:09:14.057Z,79.8172
2023-05-14T00:10:15.084Z,85.2561
2023-05-14T00:11:16.155Z,82.6819
2023-05-14T00:12:17.226Z,84.4115
2023-05-14T00:13:18.293Z,81.9029
2023-05-14T00:14:19.423Z,83.0328
2023-05-14T00:15:20.467Z,80.9871
2023-05-14T00:16:21.579Z,78.9144
2023-05-14T00:17:22.688Z,79.9770
2023-05-14T00:18:23.795Z,83.0045
2023-05-14T00:19:24.875Z,79.8966
2023-05-14T00:20:26.048Z,81.1880
2023-05-14T00:21:27.140Z,77.0480
2023-05-14T00:22:28.272Z,79.1916
2023-05-14T00:23:29.391Z,81.7967
2023-05-14T00:24:30.542Z,79.9399
2023-05-14T00:25:31.660Z,77.4314
2023-05-14T00:26:32.684Z,80.8325
2023-05-14T00:27:33.748Z,79.3142
2023-05-14T00:28:34.886Z,79.7395
2023-05-14T00:29:35.992Z,81.2422
2023-05-14T00:30:37.124Z,85.0781
2023-05-14T00:31:38.142Z,80.9071
2023-05-14T00:32:39.340Z,78.7099
2023-05-14T00:33:40.332Z,80.2172
2023-05-14T00:34:41.492Z,81.7708
2023-05-14T00:35:42.557Z,84.9993
2023-05-14T00:36:43.562Z,80.6441
2023-05-14T00:37:44.542Z,76.5739
2023-05-14T00:38:45.687Z,77.9860
2023-05-14T00:39:46.697Z,80.9129
2023-05-14T00:40:47.880Z,82.7766
2023-05-14T00:41:48.878Z,83.9720
2023-05-14T00:42:49.986Z,84.7194
2023-05-14T00:43:51.053Z,80.0242
2023-05-14T00:44:52.100Z,83.4484
2023-05-14T00:45:53.339Z,82.3209
2023-05-14T00:46:54.493Z,86.8197
2023-05-14T00:47:55.461Z,83.3775
2023-05-14T00:48:56.532Z,84.0524
2023-05-14T00:49:57.743Z,85.1738
2023-05-14T00:50:58.723Z,83.6613
2023-05-14T00:51:59.856Z,80.7133
2023-05-14T00:53:00.886Z,83.5249
2023-05-14T00:54:02.031Z,83.0788
2023-05-14T00:55:03.055Z,82.5987
2023-05-14T00:56:04.111Z,82.9401
2023-05-14T00:57:05.243Z,77.9084
2023-05-14T00:58:06.300Z,85.4502
2023-05-14T00:59:07.397Z,84.7967
2023-05-14T01:00:08.473Z,88.2964
2023-05-14T01:01:09.716Z,80.7647
2023-05-14T01:02:10.705Z,87.1525
2023-05-14T01:03:12.010Z,89.1483
2023-05-14T01:04:13.181Z,82.6206
2023-05-14T01:05:14.310Z,85.0655
2023-05-14T01:06:15.469Z,78.3034
2023-05-14T01:07:16.491Z,77.6705
2023-05-14T01:08:17.628Z,80.6906
2023-05-14T01:09:18.724Z,80.0800
2023-05-14T01:10:19.809Z,75.4292
2023-05-14T01:11:20.953Z,81.5827
2023-05-14T01:12:21.960Z,78.9283
2023-05-14T01:13:23.144Z,82.1392
2023-05-14T01:14:24.117Z,77.5241
2023-05-14T01:15:25.238Z,78.1451
2023-05-14T01:16:26.365Z,80.3229
2023-05-14T01:17:28.408Z,74.3359
2023-05-14T01:18:29.488Z,77.9973
2023-05-14T01:19:30.553Z,75.7543
2023-05-14T01:20:31.681Z,77.4919
2023-05-14T01:21:32.713Z,79.2595
2023-05-14T01:22:34.840Z,76.5614
2023-05-14T01:23:35.976Z,77.5188
2023-05-14T01:24:36.978Z,77.0092
2023-05-14T01:25:38.074Z,76.7927
2023-05-14T01:26:39.109Z,81.3261
2023-05-14T01:27:40.245Z,74.8506
2023-05-14T01:28:41.303Z,78.4441
2023-05-14T01:29:43.399Z,78.7901
2023-05-14T01:30:44.509Z,78.5448
2023-05-14T01:31:45.592Z,81.1546
2023-05-14T01:32:46.707Z,78.1030
2023-05-14T01:33:48.832Z,81.0173
2023-05-14T01:34:49.851Z,77.0820
2023-05-14T01:35:50.988Z,78.9899
2023-05-14T01:36:52.028Z,75.5182
2023-05-14T01:37:53.168Z,75.8774
2023-05-14T01:38:54.230Z,79.2479
2023-05-14T01:39:55.321Z,81.3173
2023-05-14T01:40:56.362Z,79.1075
2023-05-14T01:41:57.524Z,78.4636
2023-05-14T01:42:58.623Z,77.0144
2023-05-14T01:43:59.728Z,80.0742
2023-05-14T01:45:00.858Z,81.9780
2023-05-14T01:46:01.965Z,81.7514
2023-05-14T01:47:03.041Z,83.8929
2023-05-14T01:48:04.241Z,80.9183
2023-05-14T01:49:06.256Z,81.5216
2023-05-14T01:50:07.461Z,80.3619
2023-05-14T01:51:08.440Z,78.9434
2023-05-14T01:52:09.581Z,78.2338
2023-05-14T01:53:10.598Z,79.9128
2023-05-14T01:54:11.762Z,80.2022
2023-05-14T01:55:12.747Z,79.7901
2023-05-14T01:56:13.913Z,78.9948
2023-05-14T01:57:14.938Z,77.9679
2023-05-14T01:58:16.043Z,81.3268
2023-05-14T01:59:17.072Z,75.4558
2023-05-14T02:00:18.201Z,82.2825
2023-05-14T02:01:19.313Z,83.5306
2023-05-14T02:02:20.426Z,82.5118
2023-05-14T02:03:21.500Z,84.2912
2023-05-14T02:04:22.765Z,80.3065
2023-05-14T02:05:23.825Z,80.2981
2023-05-14T02:06:24.921Z,76.5712
2023-05-14T02:07:25.983Z,85.9414
2023-05-14T02:08:27.117Z,84.0075
2023-05-14T02:09:28.117Z,86.9070
2023-05-14T02:10:29.290Z,82.2983
2023-05-14T02:11:30.381Z,81.0351
2023-05-14T02:12:31.483Z,82.2509
2023-05-14T02:13:32.568Z,83.6598
2023-05-14T02:14:33.635Z,83.0612
2023-05-14T02:15:34.662Z,87.8503
2023-05-14T02:16:35.770Z,79.8314
2023-05-14T02:17:36.963Z,82.7158
2023-05-14T02:18:38.142Z,77.1587
2023-05-14T02:19:39.162Z,84.4767
2023-05-14T02:20:40.267Z,83.4536
2023-05-14T02:21:41.299Z,80.2464
2023-05-14T02:22:42.464Z,79.1215
2023-05-14T02:23:43.468Z,81.9481
2023-05-14T02:24:44.503Z,84.5421
2023-05-14T02:25:45.644Z,80.5591
2023-05-14T02:26:46.757Z,84.0650
2023-05-14T02:27:47.844Z,75.8037
2023-05-14T02:28:48.959Z,78.3091
2023-05-14T02:29:49.977Z,87.7966
2023-05-14T02:30:51.210Z,79.8004
2023-05-14T02:31:53.281Z,83.4615
2023-05-14T02:32:54.495Z,84.4721
2023-05-14T02:33:55.501Z,80.6946
2023-05-14T02:34:56.554Z,80.2683
2023-05-14T02:35:57.680Z,78.9100
2023-05-14T02:36:58.789Z,77.8758
2023-05-14T02:37:59.762Z,84.9511
2023-05-14T02:39:00.831Z,83.3485
2023-05-14T02:40:01.862Z,79.3481
2023-05-14T02:41:02.916Z,83.6110
2023-05-14T02:42:03.996Z,83.9172
2023-05-14T02:43:05.125Z,84.2481
2023-05-14T02:44:06.227Z,86.6588
2023-05-14T02:45:07.356Z,82.8622
2023-05-14T02:46:08.382Z,82.8481
2023-05-14T02:47:09.657Z,82.1123
2023-05-14T02:48:10.857Z,80.5018
2023-05-14T02:49:11.905Z,84.9995
2023-05-14T02:50:12.982Z,82.9401
2023-05-14T02:51:14.004Z,81.2381
2023-05-14T02:52:15.098Z,83.3509
2023-05-14T02:53:16.129Z,81.1088
2023-05-14T02:54:17.228Z,80.3865
2023-05-14T02:55:18.342Z,76.9854
2023-05-14T02:56:19.477Z,80.5559
2023-05-14T02:57:20.595Z,79.6807
2023-05-14T02:58:26.018Z,82.1718
2023-05-14T02:59:22.102Z,80.8765
2023-05-14T03:00:23.750Z,86.3723
2023-05-14T03:01:25.536Z,81.7829
2023-05-14T03:02:27.941Z,81.6013
2023-05-14T03:03:29.359Z,83.1931
2023-05-14T03:04:30.920Z,85.4435
2023-05-14T03:05:32.063Z,88.5898
2023-05-14T03:06:33.095Z,86.5312
2023-05-14T03:07:34.189Z,89.3777
2023-05-14T03:08:35.408Z,95.5980
2023-05-14T03:09:38.301Z,87.6731
2023-05-14T03:10:39.522Z,92.8237
2023-05-14T03:11:40.633Z,89.4668
2023-05-14T03:12:41.799Z,90.3626
2023-05-14T03:13:42.909Z,89.5702
2023-05-14T03:14:43.986Z,89.2642
2023-05-14T03:15:45.075Z,88.8759
2023-05-14T03:16:46.197Z,92.8769
2023-05-14T03:17:48.342Z,94.4518
2023-05-14T03:18:49.359Z,94.8905
2023-05-14T03:19:50.487Z,92.0989
2023-05-14T03:20:51.621Z,92.2172
2023-05-14T03:21:52.681Z,95.0376
2023-05-14T03:22:54.111Z,92.7342
2023-05-14T03:23:55.301Z,88.3689
2023-05-14T03:24:56.373Z,91.3148
2023-05-14T03:25:57.474Z,95.2608
2023-05-14T03:26:58.544Z,95.4175
2023-05-14T03:27:59.681Z,95.0481
2023-05-14T03:29:00.673Z,91.9810
2023-05-14T03:30:02.104Z,90.8914
2023-05-14T03:31:03.119Z,89.3272
2023-05-14T03:42:43.676Z,81.9374
2023-05-14T03:42:43.676Z,87.3634
2023-05-14T03:42:43.676Z,95.0134
2023-05-14T03:42:54.766Z,86.3186
2023-05-14T03:43:55.862Z,91.5506
2023-05-14T03:44:56.931Z,85.4540
2023-05-14T03:45:58.033Z,81.8006
2023-05-14T03:46:59.031Z,85.2106
2023-05-14T03:48:00.309Z,84.2140
2023-05-14T03:49:01.422Z,87.2191
2023-05-14T03:50:02.602Z,82.2468
2023-05-14T03:51:03.643Z,86.2893
2023-05-14T03:52:04.775Z,82.0428
2023-05-14T03:53:05.908Z,76.8324
2023-05-14T03:54:07.016Z,82.8211
2023-05-14T03:55:08.098Z,79.5740
2023-05-14T03:56:09.099Z,81.3224
2023-05-14T03:57:10.183Z,79.5865
2023-05-14T03:58:11.290Z,77.2990
2023-05-14T03:59:12.357Z,83.5347
2023-05-14T04:00:13.869Z,81.0026
2023-05-14T04:01:14.923Z,82.3178
2023-05-14T04:02:16.113Z,82.4336
2023-05-14T04:03:19.809Z,80.4455
2023-05-14T04:04:19.211Z,81.5660
2023-05-14T04:05:20.575Z,80.4567
2023-05-14T04:06:22.752Z,84.3269
2023-05-14T04:07:24.216Z,86.3931
2023-05-14T04:08:26.279Z,82.6354
2023-05-14T04:09:27.761Z,83.8682
2023-05-14T04:11:33.934Z,79.5747
2023-05-14T04:12:34.586Z,82.7259
2023-05-14T04:13:36.602Z,80.6355
2023-05-14T04:14:38.807Z,83.9237
2023-05-14T04:15:40.497Z,87.5188
2023-05-14T04:16:42.097Z,83.8732
2023-05-14T04:17:44.520Z,83.0685
2023-05-14T04:18:46.450Z,81.8007
2023-05-14T04:19:47.977Z,84.0228
2023-05-14T04:20:49.712Z,82.6874
2023-05-14T04:21:52.041Z,79.5557
2023-05-14T04:22:53.410Z,78.1561
2023-05-14T04:23:54.652Z,76.6380
2023-05-14T04:24:55.893Z,78.1123
2023-05-14T04:25:57.013Z,76.7705
2023-05-14T04:26:58.489Z,79.3415
2023-05-14T04:28:00.121Z,79.3563
2023-05-14T04:29:01.304Z,80.0998
2023-05-14T04:30:02.649Z,82.6262
2023-05-14T04:31:03.900Z,87.7915
2023-05-14T04:32:05.218Z,78.5473
2023-05-14T04:33:07.356Z,79.7357
2023-05-14T04:34:08.464Z,78.7421
2023-05-14T04:35:09.696Z,83.9437
2023-05-14T04:36:11.067Z,82.9101
2023-05-14T04:37:12.272Z,82.2295
2023-05-14T04:38:13.445Z,87.0139
2023-05-14T04:39:14.607Z,84.0312
2023-05-14T04:40:15.805Z,78.0537
2023-05-14T04:41:16.947Z,82.0474
2023-05-14T04:42:18.165Z,80.8013
2023-05-14T04:43:19.401Z,83.8326
2023-05-14T04:44:20.565Z,78.5458
2023-05-14T04:45:21.729Z,78.7855
2023-05-14T04:46:22.987Z,79.6439
2023-05-14T04:47:24.163Z,76.8498
2023-05-14T04:48:25.438Z,80.6865
2023-05-14T04:49:26.665Z,82.1059
2023-05-14T04:50:27.992Z,81.7774
2023-05-14T04:51:29.149Z,75.9598
2023-05-14T04:52:30.594Z,75.9961
2023-05-14T04:53:31.720Z,78.8203
2023-05-14T04:54:33.059Z,79.2863
2023-05-14T04:55:35.312Z,74.3212
2023-05-14T04:56:36.522Z,78.8024
2023-05-14T04:57:37.836Z,70.2754
2023-05-14T04:58:39.024Z,73.3266
2023-05-14T04:59:40.165Z,77.4391
2023-05-14T05:00:41.334Z,74.8326
2023-05-14T05:01:42.631Z,74.5877
2023-05-14T05:02:44.868Z,76.9810
2023-05-14T05:03:46.185Z,70.4890
2023-05-14T05:04:47.505Z,71.8999
2023-05-14T05:05:48.736Z,68.6048
2023-05-14T05:06:49.865Z,72.6509
2023-05-14T05:07:51.100Z,70.8864
2023-05-14T05:08:52.349Z,71.6830
2023-05-14T05:09:53.847Z,73.3288
2023-05-14T05:10:55.235Z,71.8072
2023-05-14T05:11:56.427Z,71.4839
2023-05-14T05:12:57.629Z,72.8851
2023-05-14T05:13:58.755Z,71.5787
2023-05-14T05:14:59.968Z,69.0133
2023-05-14T05:16:01.232Z,71.5395
2023-05-14T05:17:02.592Z,68.0073
2023-05-14T05:18:04.004Z,70.3830
2023-05-14T05:19:06.329Z,74.2398
2023-05-14T05:20:08.085Z,70.1972
2023-05-14T05:21:09.171Z,76.2538
2023-05-14T05:22:10.358Z,71.6513
2023-05-14T05:23:11.526Z,70.6349
2023-05-14T05:24:12.754Z,68.1276
2023-05-14T05:25:14.484Z,68.2611
2023-05-14T05:26:15.608Z,66.9059
2023-05-14T05:27:16.965Z,68.1971
2023-05-14T05:28:18.299Z,65.5308
2023-05-14T05:29:19.805Z,71.9529
2023-05-14T05:30:20.920Z,65.5670
2023-05-14T05:31:22.183Z,69.3467
2023-05-14T05:32:23.488Z,71.0573
2023-05-14T05:33:24.696Z,70.7729
2023-05-14T05:34:25.908Z,67.6797
2023-05-14T05:35:26.984Z,68.3540
2023-05-14T05:36:28.356Z,67.4647
2023-05-14T05:37:29.622Z,65.0188
2023-05-14T05:38:31.005Z,70.2073
2023-05-14T05:39:32.421Z,67.5367
2023-05-14T05:40:33.603Z,65.6064
2023-05-14T05:41:34.781Z,70.3579
2023-05-14T05:42:36.032Z,67.4814
2023-05-14T05:43:37.318Z,72.5909
2023-05-14T05:44:38.613Z,68.3596
2023-05-14T05:45:39.771Z,70.3290
2023-05-14T05:46:41.018Z,67.4209
2023-05-14T05:47:42.287Z,66.8750
2023-05-14T05:48:43.473Z,66.8142
2023-05-14T05:49:44.923Z,65.8866
2023-05-14T05:50:46.166Z,67.3704
2023-05-14T05:51:47.303Z,69.2773
2023-05-14T05:52:48.481Z,68.6732
2023-05-14T05:53:49.773Z,70.7732
2023-05-14T05:54:51.020Z,74.7232
2023-05-14T05:55:52.190Z,77.4795
2023-05-14T05:56:53.286Z,64.7715
2023-05-14T05:57:54.578Z,65.0164
2023-05-14T05:58:55.942Z,63.6430
2023-05-14T05:59:57.105Z,66.4336
2023-05-14T06:00:58.425Z,66.3995
2023-05-14T06:01:59.691Z,63.2589
2023-05-14T06:03:01.049Z,67.1501
2023-05-14T06:04:02.236Z,65.2607
2023-05-14T06:05:03.365Z,67.4109
2023-05-14T06:06:04.437Z,65.8513
2023-05-14T06:07:05.512Z,65.6716
2023-05-14T06:08:06.734Z,65.2869
2023-05-14T06:09:07.940Z,67.4818
2023-05-14T06:10:09.197Z,68.9078
2023-05-14T06:11:10.311Z,67.7436
2023-05-14T06:12:11.541Z,66.9978
2023-05-14T06:13:12.793Z,66.3011
2023-05-14T06:14:14.086Z,71.1908
2023-05-14T06:15:15.433Z,68.8752
2023-05-14T06:16:16.799Z,68.1273
2023-05-14T06:17:17.899Z,69.9141
2023-05-14T06:18:20.065Z,70.9004
2023-05-14T06:19:21.484Z,73.7053
2023-05-14T06:20:22.942Z,66.6232
2023-05-14T06:21:25.151Z,65.8715
2023-05-14T06:22:26.651Z,66.8875
2023-05-14T06:23:27.962Z,65.7365
2023-05-14T06:24:29.087Z,71.0940
2023-05-14T06:25:30.375Z,65.4968
2023-05-14T06:26:31.438Z,70.9334
2023-05-14T06:27:33.982Z,70.9924
2023-05-14T06:28:35.265Z,70.9383
2023-05-14T06:29:36.541Z,69.6999
2023-05-14T06:30:38.319Z,69.9026
2023-05-14T06:31:39.669Z,66.9936
2023-05-14T06:32:41.028Z,75.4393
2023-05-14T06:33:43.388Z,70.2925
2023-05-14T06:34:44.685Z,75.2965
2023-05-14T06:35:45.946Z,75.9035
2023-05-14T06:36:47.372Z,73.9839
2023-05-14T06:37:48.540Z,73.4370
2023-05-14T06:38:49.672Z,71.6285
2023-05-14T06:39:50.816Z,73.8135
2023-05-14T06:40:52.096Z,70.0189
2023-05-14T06:41:53.328Z,70.4389
2023-05-14T06:42:54.548Z,75.1402
2023-05-14T06:43:55.842Z,71.6007
2023-05-14T06:44:57.131Z,71.0976
2023-05-14T06:45:58.553Z,64.6841
2023-05-14T06:46:59.860Z,70.2159
2023-05-14T06:48:01.571Z,71.7281
2023-05-14T06:49:03.798Z,66.9406
2023-05-14T06:50:04.906Z,66.9340
2023-05-14T06:51:06.171Z,73.2895
2023-05-14T06:52:07.441Z,66.6783
2023-05-14T06:53:08.594Z,70.2609
2023-05-14T06:54:10.028Z,69.5162
2023-05-14T06:55:11.401Z,67.1024
2023-05-14T06:56:12.469Z,67.4771
2023-05-14T06:57:14.823Z,71.5164
2023-05-14T06:58:16.234Z,71.6959
2023-05-14T06:59:18.570Z,75.9688
2023-05-14T07:00:19.850Z,76.6757
2023-05-14T07:01:21.208Z,76.9679
2023-05-14T07:02:23.435Z,70.7274
2023-05-14T07:03:24.750Z,77.1184
2023-05-14T07:04:25.959Z,83.5274
2023-05-14T07:05:28.232Z,80.8712
2023-05-14T07:06:30.543Z,80.5811
2023-05-14T07:07:31.837Z,81.7449
2023-05-14T07:08:33.031Z,83.3363
2023-05-14T07:09:34.267Z,84.0901
2023-05-14T07:10:35.650Z,84.4214
2023-05-14T07:11:36.800Z,84.0847
2023-05-14T07:12:37.958Z,84.0172
2023-05-14T07:13:39.144Z,80.6638
2023-05-14T07:14:40.450Z,78.1943
2023-05-14T07:16:54.973Z,84.9839
2023-05-14T07:17:05.416Z,84.6917
2023-05-14T07:18:06.960Z,85.3066
2023-05-14T07:19:09.213Z,81.5040
2023-05-14T07:20:11.363Z,77.1894
2023-05-14T07:21:12.959Z,78.0854
2023-05-14T07:22:14.507Z,76.8104
2023-05-14T07:23:16.977Z,74.9508
2023-05-14T07:24:17.237Z,85.6741
2023-05-14T07:25:19.405Z,80.5254
2023-05-14T07:26:21.285Z,78.5429
2023-05-14T07:27:23.947Z,77.7575
2023-05-14T07:28:26.409Z,79.9175
2023-05-14T07:29:28.815Z,77.1693
2023-05-14T07:30:28.227Z,78.4549
2023-05-14T07:31:29.797Z,75.5503
2023-05-14T07:32:32.215Z,73.2413
2023-05-14T07:33:33.651Z,79.8569
2023-05-14T07:34:34.978Z,73.4885
2023-05-14T07:35:36.570Z,77.5975
2023-05-14T07:36:38.564Z,75.7688
2023-05-14T07:37:40.542Z,82.2617
2023-05-14T07:38:43.278Z,78.3067
2023-05-14T07:39:41.935Z,75.6939
2023-05-14T07:40:43.546Z,75.8253
2023-05-14T07:41:45.250Z,74.2435
2023-05-14T07:42:46.716Z,81.5833
2023-05-14T07:43:48.045Z,81.2184
2023-05-14T07:44:50.149Z,82.3579
2023-05-14T07:45:51.563Z,80.1784
2023-05-14T07:46:52.925Z,78.4065
2023-05-14T07:47:54.440Z,75.5665
2023-05-14T07:48:55.812Z,77.5350
2023-05-14T07:49:57.552Z,79.6701
2023-05-14T07:50:59.985Z,71.9390
2023-05-14T07:52:01.515Z,74.6805
2023-05-14T07:53:03.381Z,78.9623
2023-05-14T07:54:03.241Z,73.3769
2023-05-14T07:55:04.845Z,73.3305
2023-05-14T07:56:06.315Z,71.8337
2023-05-14T07:57:07.581Z,69.5765
2023-05-14T07:58:09.003Z,64.3912
2023-05-14T07:59:10.576Z,68.4460
2023-05-14T08:00:11.904Z,68.4653
2023-05-14T08:01:14.084Z,64.3929
2023-05-14T08:02:16.439Z,64.3077
2023-05-14T08:03:19.361Z,71.7271
2023-05-14T08:04:19.533Z,65.7655
2023-05-14T08:05:21.269Z,61.1845
2023-05-14T08:06:22.767Z,58.8239
2023-05-14T08:07:26.556Z,58.2871
2023-05-14T08:08:28.600Z,54.3610
2023-05-14T08:09:30.089Z,59.6934
2023-05-14T08:10:31.960Z,64.1760
2023-05-14T08:11:35.101Z,59.3612
2023-05-14T08:12:36.212Z,57.2248
2023-05-14T08:13:38.195Z,59.8541
2023-05-14T08:14:39.432Z,56.7095
2023-05-14T08:15:40.753Z,61.1782
2023-05-14T08:16:42.301Z,61.0151
2023-05-14T08:17:44.366Z,59.8516
2023-05-14T08:18:45.956Z,57.4055
2023-05-14T08:19:47.462Z,56.9496
2023-05-14T08:20:49.003Z,61.0078
2023-05-14T08:21:50.135Z,57.0495
2023-05-14T08:22:51.467Z,52.6723
2023-05-14T08:23:52.573Z,53.0684
2023-05-14T08:24:53.739Z,52.6064
2023-05-14T08:26:04.512Z,46.8170
2023-05-14T08:26:56.273Z,47.2789
2023-05-14T08:27:57.366Z,51.2864
2023-05-14T08:28:58.590Z,51.0062
2023-05-14T08:30:01.040Z,53.5606
2023-05-14T08:31:02.250Z,49.8456
2023-05-14T08:32:08.744Z,61.5472
2023-05-14T08:33:03.959Z,60.7865
2023-05-14T08:34:05.031Z,55.4326
2023-05-14T08:35:06.088Z,58.9254
2023-05-14T08:36:07.178Z,59.3125
2023-05-14T08:37:08.424Z,57.7650
2023-05-14T08:38:09.536Z,63.0649
2023-05-14T08:39:10.801Z,64.4522
2023-05-14T08:40:11.854Z,64.3984
2023-05-14T08:41:12.913Z,66.7089
2023-05-14T08:42:14.058Z,66.3721
2023-05-14T08:43:15.058Z,60.8943
2023-05-14T08:44:16.126Z,64.6447
2023-05-14T08:45:17.152Z,65.7868
2023-05-14T08:46:18.299Z,66.8577
2023-05-14T08:47:19.308Z,68.3480
2023-05-14T08:48:20.528Z,62.7775
2023-05-14T08:49:22.780Z,58.5789
2023-05-14T08:50:23.974Z,59.2684
2023-05-14T08:51:24.996Z,59.6990
2023-05-14T08:52:26.050Z,61.2938
2023-05-14T08:53:27.224Z,58.8435
2023-05-14T08:54:28.334Z,58.7481
2023-05-14T08:55:29.434Z,60.0785
2023-05-14T08:56:30.500Z,62.1983
2023-05-14T08:57:31.825Z,58.9784
2023-05-14T08:58:32.843Z,55.9898
2023-05-14T08:59:33.938Z,51.7762
2023-05-14T09:00:35.012Z,55.3124
2023-05-14T09:01:36.089Z,55.0470
2023-05-14T09:02:37.150Z,58.9461
2023-05-14T09:03:38.517Z,56.0806
2023-05-14T09:04:40.654Z,54.7740
2023-05-14T09:05:41.726Z,53.7194
2023-05-14T09:06:43.025Z,58.4918
2023-05-14T09:07:44.104Z,54.0109
2023-05-14T09:08:45.217Z,51.5568
2023-05-14T09:09:46.317Z,55.7314
2023-05-14T09:10:47.421Z,56.8009
2023-05-14T09:11:48.535Z,57.8907
2023-05-14T09:12:49.598Z,50.2506
2023-05-14T09:13:50.734Z,57.4393
2023-05-14T09:14:51.944Z,54.8071
2023-05-14T09:15:53.048Z,56.2445
2023-05-14T09:16:54.206Z,57.7944
2023-05-14T09:17:55.396Z,56.5348
2023-05-14T09:18:56.559Z,55.0575
2023-05-14T09:19:57.663Z,57.2404
2023-05-14T09:20:58.777Z,59.2611
2023-05-14T09:21:59.858Z,53.8855
2023-05-14T09:23:00.934Z,51.0291
2023-05-14T09:24:02.042Z,48.0096
2023-05-14T09:25:03.120Z,48.3927
2023-05-14T09:26:04.171Z,48.1033
2023-05-14T09:27:05.325Z,45.2994
2023-05-14T09:28:06.403Z,42.1745
2023-05-14T09:29:07.482Z,36.4605
2023-05-14T09:30:08.572Z,38.1814
2023-05-14T09:31:09.814Z,40.7397
2023-05-14T09:32:10.872Z,41.5281
2023-05-14T09:33:12.009Z,40.5132
2023-05-14T09:34:13.107Z,42.0835
2023-05-14T09:35:14.165Z,37.2730
2023-05-14T09:36:15.429Z,38.5367
2023-05-14T09:37:16.492Z,35.5659
2023-05-14T09:38:17.554Z,40.1653
2023-05-14T09:39:18.779Z,40.0672
2023-05-14T09:40:19.821Z,41.9197
2023-05-14T09:41:20.878Z,40.1603
2023-05-14T09:42:21.961Z,36.1761
2023-05-14T09:43:23.326Z,33.2683
2023-05-14T09:44:24.355Z,30.6184
2023-05-14T09:45:25.443Z,33.2397
2023-05-14T09:46:26.508Z,30.1297
2023-05-14T09:47:27.723Z,33.2178
2023-05-14T09:48:28.995Z,37.5368
2023-05-14T09:49:30.050Z,38.0581
2023-05-14T09:50:31.141Z,38.9205
2023-05-14T09:51:32.151Z,40.2109
2023-05-14T09:52:33.292Z,39.4169
2023-05-14T09:53:34.328Z,39.5639
2023-05-14T09:54:35.593Z,43.3290
2023-05-14T09:55:36.622Z,47.9109
2023-05-14T09:56:37.627Z,46.9980
2023-05-14T09:57:38.775Z,43.1310
2023-05-14T09:58:39.866Z,43.6310
2023-05-14T09:59:40.894Z,41.9937
2023-05-14T10:00:41.952Z,38.4639
2023-05-14T10:01:43.310Z,40.4556
2023-05-14T10:02:44.474Z,41.4997
2023-05-14T10:03:46.519Z,41.5970
2023-05-14T10:04:47.648Z,44.7595
2023-05-14T10:05:48.739Z,44.4697
2023-05-14T10:06:49.836Z,45.0783
2023-05-14T10:07:50.872Z,41.2134
2023-05-14T10:08:51.947Z,42.9630
2023-05-14T10:09:53.230Z,48.6771
2023-05-14T10:10:54.355Z,48.8814
2023-05-14T10:11:55.468Z,44.6838
2023-05-14T10:12:56.523Z,44.0649
2023-05-14T10:13:57.596Z,47.3460
2023-05-14T10:14:58.820Z,46.9450
2023-05-14T10:15:59.872Z,50.3099
2023-05-14T10:17:00.989Z,45.4565
2023-05-14T10:18:02.052Z,43.1240
2023-05-14T10:19:04.146Z,44.7703
2023-05-14T10:20:05.327Z,50.2755
2023-05-14T10:21:07.435Z,48.7889
2023-05-14T10:22:08.451Z,46.9118
2023-05-14T10:23:09.541Z,47.3870
2023-05-14T10:24:10.582Z,40.6339
2023-05-14T10:25:11.658Z,39.1725
2023-05-14T10:26:12.889Z,34.3353
2023-05-14T10:27:14.021Z,30.7587
2023-05-14T10:28:15.070Z,30.1154
2023-05-14T10:29:16.292Z,29.8127
2023-05-14T10:30:17.295Z,27.5938
2023-05-14T10:31:18.539Z,24.1953
2023-05-14T10:32:19.571Z,26.8379
2023-05-14T10:33:20.634Z,26.4615
2023-05-14T10:34:21.668Z,26.8321
2023-05-14T10:35:22.764Z,26.9725
2023-05-14T10:36:23.841Z,25.3141
2023-05-14T10:37:25.078Z,25.1576
2023-05-14T10:38:26.143Z,24.0793
2023-05-14T10:39:27.206Z,21.0531
2023-05-14T10:40:28.266Z,17.9955
2023-05-14T10:41:29.429Z,18.6179
2023-05-14T10:42:30.550Z,20.1592
2023-05-14T10:43:31.675Z,20.1157
2023-05-14T10:44:32.744Z,20.8287
2023-05-14T10:45:33.825Z,19.3874
2023-05-14T10:46:35.145Z,20.8539
2023-05-14T10:47:37.287Z,18.8834
2023-05-14T10:48:39.274Z,20.5644
2023-05-14T10:49:43.831Z,22.2137
2023-05-14T10:50:41.901Z,26.2954
2023-05-14T10:51:43.093Z,25.8456
2023-05-14T10:52:45.079Z,24.1972
2023-05-14T10:53:46.139Z,26.2995
2023-05-14T10:54:47.278Z,25.1084
2023-05-14T10:55:48.429Z,26.6187
2023-05-14T10:56:49.554Z,26.5946
2023-05-14T10:57:50.758Z,25.4737
2023-05-14T10:58:51.872Z,27.1309
2023-05-14T10:59:52.931Z,25.7237
2023-05-14T11:00:54.072Z,20.6119
2023-05-14T11:01:55.208Z,21.1307
2023-05-14T11:02:56.665Z,22.7092
2023-05-14T11:03:57.823Z,22.4378
2023-05-14T11:04:58.932Z,21.0551
2023-05-14T11:06:00.045Z,19.1449
2023-05-14T11:07:01.095Z,16.6883
2023-05-14T11:08:02.167Z,16.1043
2023-05-14T11:09:03.239Z,16.9587
2023-05-14T11:10:04.281Z,19.2810
2023-05-14T11:11:05.396Z,21.2134
2023-05-14T11:12:06.452Z,25.1931
2023-05-14T11:13:07.560Z,24.3530
2023-05-14T11:14:10.144Z,24.2898
2023-05-14T11:15:11.449Z,24.8687
2023-05-14T11:16:22.825Z,25.7074
2023-05-14T11:17:13.362Z,24.2320
2023-05-14T11:18:15.535Z,21.5310
2023-05-14T11:19:16.733Z,21.4667
2023-05-14T11:20:17.981Z,24.5496
2023-05-14T11:21:19.114Z,24.8298
2023-05-14T11:22:20.280Z,25.1914
2023-05-14T11:23:21.354Z,22.6517
2023-05-14T11:24:22.375Z,24.8278
2023-05-14T11:25:23.638Z,26.0948
2023-05-14T11:26:24.853Z,23.9798
2023-05-14T11:27:26.128Z,24.5967
2023-05-14T11:28:27.319Z,23.7067
2023-05-14T11:29:28.457Z,23.4734
2023-05-14T11:30:29.929Z,25.4205
2023-05-14T11:31:31.279Z,26.5776
2023-05-14T11:32:33.475Z,28.1458
2023-05-14T11:33:35.656Z,28.4789
2023-05-14T11:34:36.939Z,26.3182
2023-05-14T11:35:38.044Z,24.6929
2023-05-14T11:36:39.117Z,25.0360
2023-05-14T11:37:40.371Z,27.7459
2023-05-14T11:38:41.455Z,27.0435
2023-05-14T11:39:42.606Z,31.7412
2023-05-14T11:40:44.003Z,33.7682
2023-05-14T11:41:45.065Z,33.3286
2023-05-14T11:42:46.204Z,35.2495
2023-05-14T11:43:47.283Z,34.6732
2023-05-14T11:44:48.450Z,35.4237
2023-05-14T11:45:49.724Z,37.3721
2023-05-14T11:46:50.856Z,39.0632
2023-05-14T11:47:51.976Z,41.9719
2023-05-14T11:48:54.088Z,43.5852
2023-05-14T11:49:55.190Z,40.7438
2023-05-14T11:50:56.262Z,41.2640
2023-05-14T11:51:57.418Z,44.7355
2023-05-14T11:52:58.465Z,42.5733
2023-05-14T11:53:59.553Z,47.3708
2023-05-14T11:55:00.629Z,52.8606
2023-05-14T11:56:01.729Z,49.1245
2023-05-14T11:57:03.002Z,46.5176
2023-05-14T11:58:04.113Z,51.6202
2023-05-14T11:59:05.153Z,54.4969
2023-05-14T12:00:06.310Z,49.7862
2023-05-14T12:01:07.393Z,54.7359
2023-05-14T12:02:08.506Z,55.0014
2023-05-14T12:03:09.697Z,54.5794
2023-05-14T12:04:10.995Z,54.6804
2023-05-14T12:05:12.157Z,54.5013
2023-05-14T12:06:13.283Z,50.1410
2023-05-14T12:07:14.359Z,51.4351
2023-05-14T12:08:15.428Z,51.8106
2023-05-14T12:09:16.783Z,52.1674
2023-05-14T12:10:17.888Z,48.8974
2023-05-14T12:11:19.006Z,48.2891
2023-05-14T12:12:20.098Z,51.7507
2023-05-14T12:13:21.146Z,49.6008
2023-05-14T12:14:22.312Z,53.0355
2023-05-14T12:15:23.409Z,52.3891
2023-05-14T12:16:24.814Z,45.4174
2023-05-14T12:17:26.905Z,49.8349
2023-05-14T12:18:29.061Z,46.2095
2023-05-14T12:19:31.179Z,48.2204
2023-05-14T12:20:32.361Z,49.4430
2023-05-14T12:21:33.459Z,42.8810
2023-05-14T12:22:36.868Z,38.1777
2023-05-14T12:23:34.866Z,29.6201
2023-05-14T12:24:36.214Z,21.2746
2023-05-14T12:25:37.301Z,19.3660
2023-05-14T12:26:38.624Z,19.0687
2023-05-14T12:27:39.740Z,19.2641
2023-05-14T12:28:40.849Z,19.8642
2023-05-14T12:29:41.935Z,15.2272